BOV624 SLCB-SLLP
Flight info
| Callsign | BOV624 |
|---|---|
| Flight time | 0h 32m |
| Altitude | 30000 |
| Route | TEDOK UM793 PAZ |
| Aircraft | B738/M-MDFGHILORVWY/S |
Departure
| Time | 2026-04-30 01:48 |
|---|---|
| Airport | Jorge Wilsterman International Airport (SLCB) |
Arrival
| Time | 2026-04-30 02:20 |
|---|---|
| Airport | El Alto International Airport (SLLP) |
| Time | Latitude | Longitude | Altitude | Speed | Heading |
|---|---|---|---|---|---|
| 2026-04-30 01:47 | -17.48425 | -66.10354 | 11199 ft | 268 kts | 133° |
| 2026-04-30 01:48 | -17.49759 | -66.08883 | 11302 ft | 292 kts | 142° |
| 2026-04-30 01:48 | -17.51622 | -66.07879 | 11608 ft | 308 kts | 158° |
| 2026-04-30 01:48 | -17.52952 | -66.07335 | 12097 ft | 311 kts | 158° |
| 2026-04-30 01:48 | -17.55651 | -66.06218 | 13228 ft | 313 kts | 158° |
| 2026-04-30 01:49 | -17.56130 | -66.06017 | 13421 ft | 314 kts | 158° |
| 2026-04-30 01:49 | -17.57928 | -66.05265 | 14098 ft | 318 kts | 160° |
| 2026-04-30 01:49 | -17.60114 | -66.04868 | 14749 ft | 324 kts | 182° |
| 2026-04-30 01:49 | -17.62316 | -66.05354 | 15465 ft | 327 kts | 203° |
| 2026-04-30 01:50 | -17.64234 | -66.06630 | 16181 ft | 330 kts | 223° |
| 2026-04-30 01:50 | -17.65607 | -66.08559 | 16888 ft | 333 kts | 245° |
| 2026-04-30 01:50 | -17.66455 | -66.10831 | 17648 ft | 336 kts | 255° |
| 2026-04-30 01:50 | -17.66703 | -66.13237 | 18357 ft | 339 kts | 274° |
| 2026-04-30 01:51 | -17.66202 | -66.15652 | 19036 ft | 341 kts | 289° |
| 2026-04-30 01:51 | -17.65366 | -66.17982 | 19741 ft | 342 kts | 291° |
| 2026-04-30 01:51 | -17.64470 | -66.20308 | 20362 ft | 346 kts | 292° |
| 2026-04-30 01:51 | -17.63538 | -66.22688 | 21007 ft | 350 kts | 292° |
| 2026-04-30 01:52 | -17.62627 | -66.25022 | 21652 ft | 352 kts | 292° |
| 2026-04-30 01:52 | -17.61704 | -66.27410 | 22327 ft | 354 kts | 292° |
| 2026-04-30 01:52 | -17.60782 | -66.29817 | 22950 ft | 358 kts | 292° |
| 2026-04-30 01:52 | -17.59855 | -66.32252 | 23552 ft | 361 kts | 292° |
| 2026-04-30 01:53 | -17.58922 | -66.34712 | 24099 ft | 364 kts | 292° |
| 2026-04-30 01:53 | -17.57986 | -66.37187 | 24634 ft | 366 kts | 292° |
| 2026-04-30 01:53 | -17.57048 | -66.39669 | 25194 ft | 367 kts | 292° |
| 2026-04-30 01:53 | -17.56109 | -66.42157 | 25750 ft | 368 kts | 292° |
| 2026-04-30 01:54 | -17.55164 | -66.44658 | 26277 ft | 370 kts | 293° |
| 2026-04-30 01:54 | -17.54215 | -66.47170 | 26794 ft | 372 kts | 293° |
| 2026-04-30 01:54 | -17.53260 | -66.49699 | 27319 ft | 374 kts | 293° |
| 2026-04-30 01:54 | -17.52301 | -66.52236 | 27848 ft | 375 kts | 294° |
| 2026-04-30 01:55 | -17.51338 | -66.54781 | 28207 ft | 375 kts | 294° |
| 2026-04-30 01:55 | -17.50385 | -66.57303 | 28220 ft | 368 kts | 294° |
| 2026-04-30 01:55 | -17.48505 | -66.62270 | 28252 ft | 367 kts | 294° |
| 2026-04-30 01:56 | -17.46615 | -66.67258 | 28269 ft | 369 kts | 294° |
| 2026-04-30 01:56 | -17.44718 | -66.72259 | 28269 ft | 370 kts | 294° |
| 2026-04-30 01:57 | -17.42829 | -66.77235 | 28264 ft | 370 kts | 294° |
| 2026-04-30 01:57 | -17.40933 | -66.82227 | 28245 ft | 368 kts | 294° |
| 2026-04-30 01:58 | -17.39044 | -66.87198 | 28259 ft | 366 kts | 294° |
| 2026-04-30 01:58 | -17.37163 | -66.92140 | 28234 ft | 365 kts | 294° |
| 2026-04-30 01:59 | -17.34352 | -66.99519 | 28255 ft | 363 kts | 294° |
| 2026-04-30 02:00 | -17.32478 | -67.04432 | 28251 ft | 363 kts | 294° |
| 2026-04-30 02:00 | -17.30604 | -67.09343 | 28249 ft | 363 kts | 294° |
| 2026-04-30 02:01 | -17.28726 | -67.14259 | 28245 ft | 364 kts | 294° |
| 2026-04-30 02:01 | -17.26844 | -67.19181 | 28243 ft | 365 kts | 294° |
| 2026-04-30 02:02 | -17.24959 | -67.24110 | 28238 ft | 365 kts | 294° |
| 2026-04-30 02:02 | -17.23069 | -67.29046 | 28229 ft | 366 kts | 294° |
| 2026-04-30 02:03 | -17.21177 | -67.33982 | 28214 ft | 365 kts | 294° |
| 2026-04-30 02:03 | -17.19288 | -67.38909 | 28220 ft | 365 kts | 294° |
| 2026-04-30 02:04 | -17.17398 | -67.43834 | 28202 ft | 365 kts | 294° |
| 2026-04-30 02:04 | -17.15520 | -67.48723 | 28205 ft | 363 kts | 294° |
| 2026-04-30 02:05 | -17.13613 | -67.53604 | 28200 ft | 362 kts | 297° |
| 2026-04-30 02:05 | -17.11129 | -67.58157 | 28192 ft | 361 kts | 303° |
| 2026-04-30 02:06 | -17.08448 | -67.62617 | 28192 ft | 363 kts | 303° |
| 2026-04-30 02:06 | -17.05793 | -67.67106 | 28185 ft | 362 kts | 303° |
| 2026-04-30 02:07 | -17.03617 | -67.70842 | 28116 ft | 362 kts | 302° |
| 2026-04-30 02:07 | -17.02313 | -67.73089 | 27852 ft | 360 kts | 302° |
| 2026-04-30 02:07 | -17.01019 | -67.75322 | 27458 ft | 358 kts | 302° |
| 2026-04-30 02:07 | -16.99737 | -67.77536 | 27099 ft | 356 kts | 302° |
| 2026-04-30 02:08 | -16.98454 | -67.79753 | 26724 ft | 355 kts | 302° |
| 2026-04-30 02:08 | -16.97179 | -67.81956 | 26339 ft | 354 kts | 302° |
| 2026-04-30 02:08 | -16.95908 | -67.84151 | 25949 ft | 353 kts | 302° |
| 2026-04-30 02:08 | -16.94641 | -67.86338 | 25556 ft | 352 kts | 302° |
| 2026-04-30 02:09 | -16.93372 | -67.88529 | 25145 ft | 352 kts | 301° |
| 2026-04-30 02:09 | -16.92105 | -67.90715 | 24753 ft | 353 kts | 301° |
| 2026-04-30 02:09 | -16.90833 | -67.92910 | 24372 ft | 353 kts | 301° |
| 2026-04-30 02:09 | -16.89560 | -67.95105 | 23973 ft | 353 kts | 301° |
| 2026-04-30 02:10 | -16.88288 | -67.97298 | 23552 ft | 354 kts | 301° |
| 2026-04-30 02:10 | -16.87009 | -67.99502 | 23135 ft | 354 kts | 301° |
| 2026-04-30 02:10 | -16.85737 | -68.01693 | 22738 ft | 353 kts | 301° |
| 2026-04-30 02:10 | -16.84466 | -68.03883 | 22443 ft | 349 kts | 301° |
| 2026-04-30 02:11 | -16.83220 | -68.06028 | 22213 ft | 344 kts | 301° |
| 2026-04-30 02:11 | -16.81989 | -68.08146 | 21994 ft | 339 kts | 300° |
| 2026-04-30 02:11 | -16.80772 | -68.10241 | 21771 ft | 335 kts | 300° |
| 2026-04-30 02:11 | -16.79569 | -68.12311 | 21551 ft | 330 kts | 300° |
| 2026-04-30 02:12 | -16.78386 | -68.14342 | 21339 ft | 326 kts | 300° |
| 2026-04-30 02:12 | -16.77230 | -68.16328 | 21122 ft | 322 kts | 300° |
| 2026-04-30 02:12 | -16.76071 | -68.18315 | 20900 ft | 318 kts | 300° |
| 2026-04-30 02:12 | -16.74928 | -68.20272 | 20721 ft | 313 kts | 300° |
| 2026-04-30 02:13 | -16.73800 | -68.22207 | 20442 ft | 312 kts | 300° |
| 2026-04-30 02:13 | -16.72672 | -68.24140 | 20159 ft | 311 kts | 300° |
| 2026-04-30 02:13 | -16.71549 | -68.26064 | 19862 ft | 310 kts | 300° |
| 2026-04-30 02:13 | -16.70423 | -68.27993 | 19543 ft | 311 kts | 300° |
| 2026-04-30 02:14 | -16.69301 | -68.29917 | 19238 ft | 311 kts | 300° |
| 2026-04-30 02:14 | -16.68170 | -68.31854 | 18825 ft | 315 kts | 300° |
| 2026-04-30 02:14 | -16.67050 | -68.33770 | 18791 ft | 304 kts | 300° |
| 2026-04-30 02:14 | -16.65965 | -68.35625 | 18713 ft | 294 kts | 300° |
| 2026-04-30 02:15 | -16.64830 | -68.37336 | 18632 ft | 282 kts | 313° |
| 2026-04-30 02:15 | -16.63202 | -68.38435 | 18239 ft | 281 kts | 340° |
| 2026-04-30 02:15 | -16.61303 | -68.38773 | 17910 ft | 276 kts | 359° |
| 2026-04-30 02:15 | -16.59396 | -68.38708 | 17524 ft | 273 kts | 2° |
| 2026-04-30 02:16 | -16.57503 | -68.38615 | 17091 ft | 271 kts | 2° |
| 2026-04-30 02:16 | -16.55624 | -68.38532 | 16671 ft | 269 kts | 2° |
| 2026-04-30 02:16 | -16.53758 | -68.38432 | 16248 ft | 268 kts | 9° |
| 2026-04-30 02:16 | -16.52084 | -68.37690 | 15815 ft | 257 kts | 41° |
| 2026-04-30 02:17 | -16.51112 | -68.36236 | 15425 ft | 240 kts | 73° |
| 2026-04-30 02:17 | -16.50868 | -68.34562 | 15071 ft | 230 kts | 89° |
| 2026-04-30 02:17 | -16.50888 | -68.32918 | 14715 ft | 224 kts | 91° |
| 2026-04-30 02:17 | -16.50927 | -68.31347 | 14533 ft | 210 kts | 91° |
| 2026-04-30 02:18 | -16.50969 | -68.29903 | 14480 ft | 188 kts | 92° |
| 2026-04-30 02:18 | -16.51028 | -68.28598 | 14479 ft | 181 kts | 93° |
| 2026-04-30 02:18 | -16.51087 | -68.27259 | 14264 ft | 183 kts | 91° |
| 2026-04-30 02:18 | -16.51129 | -68.25951 | 14060 ft | 180 kts | 91° |
| 2026-04-30 02:19 | -16.51169 | -68.24657 | 13811 ft | 178 kts | 91° |
| 2026-04-30 02:19 | -16.51207 | -68.23392 | 13543 ft | 176 kts | 91° |
| 2026-04-30 02:19 | -16.51240 | -68.22077 | 13309 ft | 180 kts | 91° |
| 2026-04-30 02:19 | -16.51283 | -68.20787 | 13182 ft | 180 kts | 91° |
| 2026-04-30 02:20 | -16.51320 | -68.19600 | 13262 ft | 143 kts | 92° |
| 2026-04-30 02:20 | -16.51349 | -68.18716 | 13292 ft | 101 kts | 92° |
| 2026-04-30 02:20 | -16.51347 | -68.18387 | 13300 ft | 25 kts | 76° |
| 2026-04-30 02:20 | -16.51288 | -68.18224 | 13297 ft | 23 kts | 60° |
| 2026-04-30 02:21 | -16.51226 | -68.18135 | 13311 ft | 23 kts | 49° |
| 2026-04-30 02:21 | -16.51085 | -68.17979 | 13332 ft | 22 kts | 46° |
| 2026-04-30 02:21 | -16.51017 | -68.17901 | 13335 ft | 12 kts | 47° |
| 2026-04-30 02:21 | -16.50993 | -68.17830 | 13335 ft | 7 kts | 90° |
| 2026-04-30 02:22 | -16.50994 | -68.17778 | 13335 ft | 7 kts | 91° |
| 2026-04-30 02:22 | -16.51008 | -68.17730 | 13335 ft | 7 kts | 112° |
| 2026-04-30 02:22 | -16.50992 | -68.17699 | 13334 ft | 2 kts | 27° |
| 2026-04-30 02:22 | -16.50979 | -68.17692 | 13334 ft | 2 kts | 24° |
| 2026-04-30 02:23 | -16.50970 | -68.17688 | 13334 ft | 0 kts | 26° |